Time;durP1;ratioP1;P1;durP2;ratioP2;P2;SDS_P1;SDS_P2;PMS_P1;PMS_P2;Temp;Humidity;BMP_temperature;BMP_pressure;BME280_temperature;BME280_humidity;BME280_pressure;Samples;Min_cycle;Max_cycle;Signal;HPM_P1;HPM_P2
2022/06/19 00:00:39;;;;;;;13.93;8.60;;;24.20;99.90;;;;;;5080467;28;20047;-80
2022/06/19 00:03:09;;;;;;;12.07;6.03;;;24.20;99.90;;;;;;5066545;28;20054;-80
2022/06/19 00:05:36;;;;;;;9.15;5.50;;;24.10;99.90;;;;;;5061848;28;20039;-77
2022/06/19 00:08:04;;;;;;;10.55;5.45;;;24.00;99.90;;;;;;5083830;28;20040;-80
2022/06/19 00:10:30;;;;;;;11.30;5.72;;;24.00;99.90;;;;;;5080043;28;20052;-77
2022/06/19 00:12:57;;;;;;;8.63;5.03;;;23.90;99.90;;;;;;5078938;28;20043;-78
2022/06/19 00:15:23;;;;;;;11.80;5.50;;;24.00;99.90;;;;;;5064903;28;20056;-78
2022/06/19 00:17:49;;;;;;;8.80;5.25;;;24.00;99.90;;;;;;5040667;28;20098;-77
2022/06/19 00:20:15;;;;;;;9.95;5.30;;;24.00;99.90;;;;;;5042929;28;20044;-82
2022/06/19 00:22:41;;;;;;;10.82;5.60;;;24.10;99.90;;;;;;5044886;28;20499;-78
2022/06/19 00:25:09;;;;;;;9.82;5.60;;;24.10;99.90;;;;;;5053394;28;20121;-77
2022/06/19 00:27:39;;;;;;;10.95;5.25;;;24.10;99.90;;;;;;5056297;28;20053;-80
2022/06/19 00:30:08;;;;;;;14.35;5.82;;;24.10;99.90;;;;;;5063730;28;20593;-76
2022/06/19 00:32:35;;;;;;;12.68;6.20;;;24.00;99.90;;;;;;5059445;28;20129;-75
2022/06/19 00:35:01;;;;;;;14.57;5.45;;;24.00;99.90;;;;;;5050881;28;20052;-76
2022/06/19 00:37:29;;;;;;;13.48;5.53;;;24.00;99.90;;;;;;5044238;28;20033;-82
2022/06/19 00:39:56;;;;;;;12.40;5.85;;;23.90;99.90;;;;;;5081071;28;20140;-75
2022/06/19 00:42:24;;;;;;;14.00;5.80;;;23.90;99.90;;;;;;5044869;28;20320;-76
2022/06/19 00:44:53;;;;;;;13.80;6.13;;;23.80;99.90;;;;;;5042876;28;20100;-81
2022/06/19 00:47:29;;;;;;;12.73;5.80;;;23.90;99.90;;;;;;5045584;28;20092;-82
2022/06/19 00:50:22;;;;;;;10.07;5.50;;;23.80;99.90;;;;;;5046191;28;20412;-77
2022/06/19 00:52:49;;;;;;;11.02;5.32;;;23.80;99.90;;;;;;5039808;28;20456;-77
2022/06/19 00:55:32;;;;;;;12.40;5.50;;;23.80;99.90;;;;;;5061284;28;20051;-75
2022/06/19 00:58:05;;;;;;;10.60;5.75;;;23.80;99.90;;;;;;5073445;28;20086;-75
2022/06/19 01:00:33;;;;;;;12.45;5.95;;;23.80;99.90;;;;;;5050880;28;20032;-75
2022/06/19 01:03:05;;;;;;;13.27;5.45;;;23.80;99.90;;;;;;5075822;28;20094;-77
2022/06/19 01:05:34;;;;;;;13.93;5.85;;;23.70;99.90;;;;;;5066293;28;20463;-79
2022/06/19 01:08:01;;;;;;;11.50;5.70;;;23.70;99.90;;;;;;5075443;28;20078;-80
2022/06/19 01:10:33;;;;;;;11.30;6.13;;;23.70;99.90;;;;;;5056361;28;20533;-76
2022/06/19 01:12:59;;;;;;;12.27;5.40;;;23.60;99.90;;;;;;5045022;28;20137;-78
2022/06/19 01:15:26;;;;;;;11.00;5.72;;;23.70;99.90;;;;;;5042993;28;20049;-76
2022/06/19 01:17:55;;;;;;;14.27;6.55;;;23.70;99.90;;;;;;5042546;28;20043;-76
2022/06/19 01:20:23;;;;;;;10.48;6.18;;;23.70;99.90;;;;;;5063192;28;20055;-80
2022/06/19 01:23:06;;;;;;;11.18;5.60;;;23.70;99.90;;;;;;5046400;28;20048;-76
2022/06/19 01:25:35;;;;;;;12.70;6.55;;;23.70;99.90;;;;;;5044324;28;20037;-79
2022/06/19 01:30:53;;;;;;;15.90;6.57;;;23.60;99.90;;;;;;5069900;28;20442;-75
2022/06/19 01:33:38;;;;;;;13.18;7.68;;;23.60;99.90;;;;;;5044902;28;20417;-76
2022/06/19 01:36:07;;;;;;;15.48;7.90;;;23.60;99.90;;;;;;5061619;28;20037;-78
2022/06/19 01:38:34;;;;;;;13.20;8.02;;;23.50;99.90;;;;;;5063787;28;20049;-75
2022/06/19 01:41:06;;;;;;;16.20;8.13;;;23.40;99.90;;;;;;5056620;28;20037;-76
2022/06/19 01:43:34;;;;;;;11.25;7.65;;;23.40;99.90;;;;;;5044205;28;20037;-82
2022/06/19 01:46:04;;;;;;;12.30;7.63;;;23.40;99.90;;;;;;5053307;28;20497;-81
2022/06/19 01:48:32;;;;;;;19.65;8.10;;;23.40;99.90;;;;;;5070786;28;20087;-82
2022/06/19 01:51:04;;;;;;;12.77;7.38;;;23.40;99.90;;;;;;5059262;28;20037;-77
2022/06/19 01:53:53;;;;;;;14.93;9.10;;;23.40;99.90;;;;;;5048082;28;20033;-78
2022/06/19 01:56:25;;;;;;;10.10;7.63;;;23.30;99.90;;;;;;5071133;28;20075;-76
2022/06/19 01:58:54;;;;;;;;;;;23.30;99.90;;;;;;5047032;28;20044;-74
2022/06/19 02:01:21;;;;;;;11.45;7.43;;;23.30;99.90;;;;;;5045089;28;19913;-77
2022/06/19 02:03:52;;;;;;;11.55;6.68;;;23.30;99.90;;;;;;5043586;28;20100;-81
2022/06/19 02:06:22;;;;;;;11.02;6.93;;;23.30;99.90;;;;;;5061309;28;20048;-76
2022/06/19 02:08:49;;;;;;;12.63;6.97;;;23.30;99.90;;;;;;5047642;28;20061;-77
2022/06/19 02:11:16;;;;;;;13.05;6.28;;;23.30;99.90;;;;;;5060572;28;20095;-81
2022/06/19 02:13:45;;;;;;;13.25;6.78;;;23.20;99.90;;;;;;5041102;28;20037;-76
2022/06/19 02:16:15;;;;;;;10.88;6.20;;;23.30;99.90;;;;;;5046740;28;20504;-76
2022/06/19 02:18:46;;;;;;;12.57;6.70;;;23.30;99.90;;;;;;5077938;28;20052;-82
2022/06/19 02:21:18;;;;;;;10.82;6.00;;;23.30;99.90;;;;;;5051690;28;20111;-76
2022/06/19 02:23:46;;;;;;;12.68;6.90;;;23.40;99.90;;;;;;5069665;28;20518;-79
2022/06/19 02:26:13;;;;;;;12.27;6.63;;;23.30;99.90;;;;;;5042540;28;20546;-82
2022/06/19 02:28:45;;;;;;;12.95;6.20;;;23.40;99.90;;;;;;5031855;28;20041;-77
2022/06/19 02:31:16;;;;;;;10.20;6.67;;;23.40;99.90;;;;;;5044209;28;20045;-77
2022/06/19 02:33:59;;;;;;;16.10;6.80;;;23.40;99.90;;;;;;5057242;28;20428;-76
2022/06/19 02:36:42;;;;;;;12.20;6.50;;;23.40;99.90;;;;;;5054878;28;20076;-75
2022/06/19 02:39:14;;;;;;;10.73;6.68;;;23.40;99.90;;;;;;5056942;28;20037;-76
2022/06/19 02:41:47;;;;;;;13.70;6.50;;;23.30;99.90;;;;;;5046405;28;20067;-76
2022/06/19 02:44:13;;;;;;;10.95;6.60;;;23.40;99.90;;;;;;5043813;28;20310;-76
2022/06/19 02:46:40;;;;;;;12.48;7.15;;;23.50;99.90;;;;;;5047138;28;20112;-77
2022/06/19 02:49:06;;;;;;;11.00;6.55;;;23.60;99.90;;;;;;5044300;28;20040;-77
2022/06/19 02:51:32;;;;;;;11.27;6.80;;;23.70;99.90;;;;;;5046817;28;20029;-76
2022/06/19 02:53:58;;;;;;;15.38;6.93;;;23.70;99.90;;;;;;5046819;28;20532;-80
2022/06/19 02:56:25;;;;;;;12.65;6.68;;;23.80;99.90;;;;;;5045159;28;20037;-76
2022/06/19 02:58:52;;;;;;;11.80;5.82;;;23.80;99.90;;;;;;5047511;28;20377;-76
2022/06/19 03:01:21;;;;;;;14.10;6.47;;;23.80;99.90;;;;;;5043408;28;20032;-76
2022/06/19 03:03:49;;;;;;;10.80;6.40;;;23.70;99.90;;;;;;5045788;28;20044;-76
2022/06/19 03:06:17;;;;;;;11.50;6.28;;;23.70;99.90;;;;;;5045888;28;20048;-81
2022/06/19 03:08:44;;;;;;;10.85;6.55;;;23.70;99.90;;;;;;5049343;28;20037;-79
2022/06/19 03:11:11;;;;;;;9.82;5.85;;;23.60;99.90;;;;;;5037998;28;20037;-76
2022/06/19 03:13:37;;;;;;;9.55;6.63;;;23.60;99.90;;;;;;5050031;28;20041;-79
2022/06/19 03:16:06;;;;;;;11.38;5.90;;;23.70;99.90;;;;;;5054979;28;20099;-79
2022/06/19 03:18:35;;;;;;;9.77;5.95;;;23.60;99.90;;;;;;5067601;28;20619;-79
2022/06/19 03:21:01;;;;;;;7.78;5.55;;;23.60;99.90;;;;;;5049432;28;20029;-80
2022/06/19 03:23:28;;;;;;;10.43;5.60;;;23.60;99.90;;;;;;5048794;28;20029;-76
2022/06/19 03:25:53;;;;;;;11.27;5.60;;;23.70;99.90;;;;;;5051256;28;20135;-77
2022/06/19 03:28:19;;;;;;;10.40;5.85;;;23.70;99.90;;;;;;5062146;28;20136;-76
2022/06/19 03:30:45;;;;;;;18.33;6.43;;;23.70;99.90;;;;;;5064480;28;20037;-76
2022/06/19 03:33:11;;;;;;;11.07;5.93;;;23.70;99.90;;;;;;5050650;28;20508;-76
2022/06/19 03:35:37;;;;;;;11.15;5.53;;;23.70;99.90;;;;;;5049241;28;20041;-81
2022/06/19 03:38:04;;;;;;;14.52;6.43;;;23.80;99.90;;;;;;5053284;28;20544;-77
2022/06/19 03:40:32;;;;;;;10.13;5.38;;;23.80;99.90;;;;;;5062049;28;20044;-76
2022/06/19 03:42:58;;;;;;;13.63;5.78;;;23.80;99.90;;;;;;5083959;28;20131;-76
2022/06/19 03:45:25;;;;;;;10.57;5.85;;;23.90;99.90;;;;;;5074579;28;20036;-80
2022/06/19 03:47:51;;;;;;;12.13;5.72;;;23.90;99.90;;;;;;5056397;28;20053;-81
2022/06/19 03:50:18;;;;;;;11.68;5.80;;;23.90;99.90;;;;;;5080511;28;20531;-76
2022/06/19 03:52:45;;;;;;;9.93;5.40;;;23.90;99.90;;;;;;5078570;28;20216;-81
2022/06/19 03:55:12;;;;;;;14.63;5.50;;;23.90;99.90;;;;;;5068802;28;20093;-76
2022/06/19 03:57:39;;;;;;;16.27;6.22;;;23.90;99.90;;;;;;5053880;28;20040;-81
2022/06/19 04:00:09;;;;;;;12.20;5.38;;;23.80;99.90;;;;;;5058510;28;20504;-75
2022/06/19 04:02:36;;;;;;;9.60;6.05;;;23.80;99.90;;;;;;5063814;28;20045;-76
2022/06/19 04:05:02;;;;;;;11.98;5.90;;;23.80;99.90;;;;;;5048274;28;20034;-77
2022/06/19 04:07:28;;;;;;;12.60;6.22;;;23.70;99.90;;;;;;5065277;28;20124;-75
2022/06/19 04:09:59;;;;;;;12.50;5.60;;;23.70;99.90;;;;;;5051487;28;20763;-76
2022/06/19 04:12:25;;;;;;;9.93;5.10;;;23.70;99.90;;;;;;5058705;28;20040;-77
2022/06/19 04:14:52;;;;;;;12.55;5.63;;;23.80;99.90;;;;;;5047765;28;20038;-75
2022/06/19 04:17:18;;;;;;;10.07;5.07;;;23.80;99.90;;;;;;5049077;28;20033;-79
2022/06/19 04:19:44;;;;;;;11.90;5.35;;;23.80;99.90;;;;;;5048054;28;20060;-77
2022/06/19 04:22:11;;;;;;;11.70;5.10;;;23.90;99.90;;;;;;5038437;28;20428;-76
2022/06/19 04:24:39;;;;;;;9.82;5.43;;;23.90;99.90;;;;;;5045272;28;20921;-76
2022/06/19 04:27:07;;;;;;;14.90;5.10;;;23.90;99.90;;;;;;5077514;28;20056;-75
2022/06/19 04:29:34;;;;;;;9.93;4.85;;;23.90;99.90;;;;;;5074721;28;20037;-76
2022/06/19 04:32:00;;;;;;;11.00;4.88;;;23.90;99.90;;;;;;5074153;28;20703;-79
2022/06/19 04:34:27;;;;;;;13.95;6.03;;;23.90;99.90;;;;;;5046514;28;20033;-79
2022/06/19 04:36:54;;;;;;;12.30;5.60;;;23.90;99.90;;;;;;5063103;28;20034;-75
2022/06/19 04:39:19;;;;;;;12.23;5.43;;;24.00;99.90;;;;;;5046384;28;20544;-79
2022/06/19 04:41:46;;;;;;;12.60;5.40;;;24.00;99.90;;;;;;5044900;28;20072;-77
2022/06/19 04:44:14;;;;;;;11.73;5.78;;;24.00;99.90;;;;;;5032085;28;20041;-75
2022/06/19 04:46:41;;;;;;;17.33;6.07;;;24.10;99.90;;;;;;5047857;28;20026;-75
2022/06/19 04:49:09;;;;;;;11.27;4.68;;;24.10;99.90;;;;;;5044826;28;20044;-77
2022/06/19 04:51:35;;;;;;;12.50;5.15;;;24.10;99.90;;;;;;5074826;28;20025;-75
2022/06/19 04:54:02;;;;;;;9.27;5.45;;;24.10;99.90;;;;;;5049805;28;20061;-82
2022/06/19 04:56:28;;;;;;;10.80;5.00;;;24.20;99.90;;;;;;5061379;28;20111;-77
2022/06/19 04:58:54;;;;;;;14.30;5.45;;;24.20;99.90;;;;;;5063520;28;20058;-79
2022/06/19 05:01:29;;;;;;;11.90;4.88;;;24.30;99.90;;;;;;5064889;28;20472;-81
2022/06/19 05:03:57;;;;;;;9.32;5.00;;;24.30;99.90;;;;;;5062088;28;20101;-77
2022/06/19 05:06:26;;;;;;;10.63;4.85;;;24.30;99.90;;;;;;5082400;28;20510;-77
2022/06/19 05:08:53;;;;;;;10.52;5.05;;;24.30;99.90;;;;;;5056373;28;20045;-75
2022/06/19 05:11:21;;;;;;;8.77;4.78;;;24.30;99.90;;;;;;5082961;28;20044;-78
2022/06/19 05:13:48;;;;;;;13.73;5.30;;;24.30;99.90;;;;;;5081434;28;20037;-74
2022/06/19 05:16:16;;;;;;;11.07;4.68;;;24.30;99.90;;;;;;5048761;28;20071;-81
2022/06/19 05:18:44;;;;;;;10.35;4.90;;;24.30;99.90;;;;;;5067411;28;20037;-80
2022/06/19 05:21:10;;;;;;;14.00;5.78;;;24.30;99.90;;;;;;5059347;28;20037;-76
2022/06/19 05:23:42;;;;;;;13.20;5.47;;;24.30;99.90;;;;;;5063147;28;20120;-79
2022/06/19 05:26:12;;;;;;;11.13;5.45;;;24.20;99.90;;;;;;5058446;28;20033;-76
2022/06/19 05:28:38;;;;;;;8.52;4.78;;;24.20;99.90;;;;;;5056109;28;20049;-78
2022/06/19 05:31:06;;;;;;;11.48;4.45;;;24.10;99.90;;;;;;5042353;28;20033;-82
2022/06/19 05:33:33;;;;;;;9.85;5.20;;;24.10;99.90;;;;;;5060271;28;20034;-76
2022/06/19 05:35:59;;;;;;;9.32;4.38;;;24.10;99.90;;;;;;5044531;28;20104;-78
2022/06/19 05:38:25;;;;;;;10.73;5.20;;;24.00;99.90;;;;;;5032007;28;20180;-76
2022/06/19 05:40:53;;;;;;;11.27;4.47;;;24.10;99.90;;;;;;5049969;28;20045;-76
2022/06/19 05:43:24;;;;;;;7.85;4.30;;;24.10;99.90;;;;;;5064203;28;20052;-77
2022/06/19 05:45:58;;;;;;;13.18;4.72;;;24.10;99.90;;;;;;5082189;28;20739;-82
2022/06/19 05:48:26;;;;;;;8.77;3.65;;;24.20;99.90;;;;;;5063005;28;20044;-81
2022/06/19 05:51:08;;;;;;;7.95;4.10;;;24.20;99.90;;;;;;5083213;28;20040;-76
2022/06/19 05:53:40;;;;;;;13.07;3.97;;;24.30;99.90;;;;;;5068173;28;20040;-76
2022/06/19 05:56:06;;;;;;;;;;;24.40;99.90;;;;;;5079668;28;20492;-80
2022/06/19 05:58:34;;;;;;;10.50;4.75;;;24.40;99.90;;;;;;5064895;28;20014;-75
2022/06/19 06:01:00;;;;;;;9.73;3.85;;;24.50;99.90;;;;;;5066232;28;20108;-77
2022/06/19 06:03:26;;;;;;;8.77;3.83;;;24.50;99.90;;;;;;5065786;28;20036;-76
2022/06/19 06:05:52;;;;;;;11.75;4.18;;;24.60;99.90;;;;;;5084746;28;20042;-81
2022/06/19 06:08:19;;;;;;;9.40;3.63;;;24.60;99.90;;;;;;5061798;28;20080;-76
2022/06/19 06:10:49;;;;;;;8.77;4.03;;;24.60;99.90;;;;;;5064597;28;20119;-77
2022/06/19 06:13:17;;;;;;;11.73;4.15;;;24.60;99.90;;;;;;5068729;28;20058;-81
2022/06/19 06:15:45;;;;;;;9.73;3.78;;;24.70;99.90;;;;;;5080891;28;20099;-77
2022/06/19 06:18:14;;;;;;;13.50;7.03;;;24.70;99.90;;;;;;5050223;28;20136;-74
2022/06/19 06:20:40;;;;;;;10.45;4.32;;;24.80;99.90;;;;;;5062490;28;20044;-76
2022/06/19 06:23:06;;;;;;;11.48;3.42;;;24.90;99.90;;;;;;5077737;28;20053;-77
2022/06/19 06:25:34;;;;;;;9.57;4.10;;;25.00;99.90;;;;;;5073412;28;20044;-78
2022/06/19 06:28:04;;;;;;;9.60;3.50;;;25.00;99.90;;;;;;5061118;28;20413;-76
2022/06/19 06:30:30;;;;;;;9.20;4.10;;;25.10;99.90;;;;;;5047292;28;20033;-77
2022/06/19 06:32:56;;;;;;;8.48;3.58;;;25.10;99.90;;;;;;5077528;28;20037;-79
2022/06/19 06:35:22;;;;;;;11.82;4.03;;;25.20;99.90;;;;;;5046357;28;20040;-76
2022/06/19 06:37:49;;;;;;;8.82;3.20;;;25.30;99.90;;;;;;5047999;28;20114;-75
2022/06/19 06:40:15;;;;;;;8.05;4.00;;;25.30;99.90;;;;;;5075471;28;20048;-76
2022/06/19 06:42:41;;;;;;;12.57;3.80;;;25.40;99.90;;;;;;5073014;28;20045;-76
2022/06/19 06:45:09;;;;;;;7.85;3.30;;;25.50;99.90;;;;;;5072122;28;20720;-80
2022/06/19 06:47:35;;;;;;;11.23;3.60;;;25.60;99.90;;;;;;5055564;28;20048;-77
2022/06/19 06:50:01;;;;;;;9.32;4.05;;;25.50;99.90;;;;;;5076337;28;20040;-76
2022/06/19 06:52:29;;;;;;;9.55;3.83;;;25.60;99.90;;;;;;5072132;28;20040;-79
2022/06/19 06:54:57;;;;;;;9.30;3.80;;;25.70;99.90;;;;;;5078029;28;21022;-81
2022/06/19 06:57:23;;;;;;;14.90;3.65;;;25.70;99.90;;;;;;5059609;28;20567;-78
2022/06/19 06:59:49;;;;;;;13.18;3.70;;;25.70;99.90;;;;;;5063534;28;20048;-78
2022/06/19 07:02:15;;;;;;;10.95;3.85;;;25.80;99.90;;;;;;5063474;28;20037;-75
2022/06/19 07:04:43;;;;;;;7.07;3.17;;;25.90;99.90;;;;;;5064279;28;20174;-76
2022/06/19 07:07:09;;;;;;;13.00;3.30;;;25.90;99.90;;;;;;5068546;28;20033;-77
2022/06/19 07:09:35;;;;;;;9.77;3.97;;;26.00;99.90;;;;;;5069410;28;20033;-80
2022/06/19 07:12:02;;;;;;;9.25;3.55;;;26.10;99.90;;;;;;5080441;28;20095;-77
2022/06/19 07:14:29;;;;;;;9.38;3.22;;;26.20;99.90;;;;;;5068421;28;20043;-76
2022/06/19 07:16:54;;;;;;;10.05;4.07;;;26.20;99.90;;;;;;5066996;28;20115;-76
2022/06/19 07:19:20;;;;;;;7.50;3.63;;;26.20;99.90;;;;;;5048412;28;20483;-78
2022/06/19 07:21:47;;;;;;;9.32;3.25;;;26.30;99.90;;;;;;5058242;28;20021;-75
2022/06/19 07:24:13;;;;;;;8.50;3.58;;;26.40;99.90;;;;;;5046233;28;20485;-79
2022/06/19 07:26:39;;;;;;;8.50;3.28;;;26.50;99.90;;;;;;5045847;28;20583;-74
2022/06/19 07:29:05;;;;;;;9.60;3.42;;;26.60;99.90;;;;;;5059510;28;20055;-76
2022/06/19 07:31:35;;;;;;;9.77;3.90;;;26.70;99.90;;;;;;5046410;28;20037;-77
2022/06/19 07:34:01;;;;;;;10.48;3.80;;;26.80;99.90;;;;;;5042815;28;20147;-82
2022/06/19 07:36:28;;;;;;;10.15;3.60;;;26.80;99.90;;;;;;5054480;28;20192;-76
2022/06/19 07:38:58;;;;;;;8.27;3.40;;;26.90;99.90;;;;;;5077149;28;20047;-79
2022/06/19 07:41:24;;;;;;;7.38;3.22;;;27.00;99.90;;;;;;5078420;28;20464;-77
2022/06/19 07:43:51;;;;;;;8.15;3.40;;;27.10;99.90;;;;;;5063248;28;20109;-75
2022/06/19 07:46:18;;;;;;;13.35;3.92;;;27.20;99.90;;;;;;5073204;28;20101;-78
2022/06/19 07:51:28;;;;;;;11.98;3.65;;;27.20;99.90;;;;;;5046057;28;20573;-76
2022/06/19 07:53:55;;;;;;;8.55;3.33;;;27.40;99.90;;;;;;5053741;28;20403;-83
2022/06/19 07:56:20;;;;;;;7.07;3.28;;;27.50;99.90;;;;;;5062089;28;20052;-74
2022/06/19 07:58:47;;;;;;;7.05;3.45;;;27.60;99.90;;;;;;5072917;28;20054;-78
2022/06/19 08:01:13;;;;;;;11.05;3.47;;;27.60;99.90;;;;;;5082435;28;20044;-77
2022/06/19 08:03:41;;;;;;;13.32;3.90;;;27.70;99.90;;;;;;5080823;28;20127;-77
2022/06/19 08:06:13;;;;;;;10.73;4.03;;;27.80;99.90;;;;;;5050523;28;20036;-76
2022/06/19 08:08:39;;;;;;;7.88;3.75;;;27.90;99.90;;;;;;5068112;28;20043;-80
2022/06/19 08:11:06;;;;;;;11.10;4.07;;;28.00;99.90;;;;;;5060224;28;20045;-75
2022/06/19 08:13:34;;;;;;;10.65;3.85;;;28.20;99.90;;;;;;5059126;28;20059;-76
2022/06/19 08:16:04;;;;;;;8.85;3.75;;;28.20;99.90;;;;;;5056673;28;20097;-77
2022/06/19 08:18:32;;;;;;;13.73;4.10;;;28.20;99.90;;;;;;5046888;28;20043;-79
2022/06/19 08:20:59;;;;;;;8.50;4.05;;;28.30;99.90;;;;;;5048538;28;20037;-77
2022/06/19 08:23:25;;;;;;;13.85;3.85;;;28.30;99.90;;;;;;5069470;28;20115;-81
2022/06/19 08:25:52;;;;;;;9.60;3.58;;;28.40;99.90;;;;;;5045129;28;20043;-76
2022/06/19 08:28:23;;;;;;;12.40;3.78;;;28.50;99.90;;;;;;5064543;28;20076;-81
2022/06/19 08:30:51;;;;;;;9.50;3.70;;;28.50;99.90;;;;;;5083576;28;20045;-76
2022/06/19 08:33:19;;;;;;;9.85;4.15;;;28.60;99.90;;;;;;5047345;28;20091;-76
2022/06/19 08:35:55;;;;;;;11.48;3.50;;;28.70;99.90;;;;;;5080534;28;20508;-79
2022/06/19 08:38:28;;;;;;;13.15;3.63;;;28.80;99.90;;;;;;5092889;28;20566;-76
2022/06/19 08:41:07;;;;;;;11.15;3.58;;;28.90;99.90;;;;;;5067713;28;20046;-75
2022/06/19 08:43:57;;;;;;;17.63;4.25;;;28.90;99.90;;;;;;5062358;28;20072;-77
2022/06/19 08:46:42;;;;;;;9.07;3.35;;;29.00;99.90;;;;;;5059213;28;20094;-77
2022/06/19 08:49:19;;;;;;;10.82;4.10;;;29.00;99.90;;;;;;5054392;28;20095;-83
2022/06/19 08:52:04;;;;;;;17.23;4.30;;;29.10;99.90;;;;;;5047768;28;20048;-79
2022/06/19 08:54:36;;;;;;;10.07;3.97;;;29.00;99.90;;;;;;5064684;28;20102;-77
2022/06/19 08:57:34;;;;;;;11.82;3.75;;;29.10;99.90;;;;;;5083913;28;20044;-79
2022/06/19 09:00:34;;;;;;;15.85;3.95;;;29.20;99.90;;;;;;5065660;28;20065;-77
2022/06/19 09:03:18;;;;;;;10.88;4.25;;;29.20;99.90;;;;;;5065495;28;20037;-76
2022/06/19 09:05:56;;;;;;;9.90;3.88;;;29.30;99.90;;;;;;5068913;28;20063;-78
2022/06/19 09:08:41;;;;;;;11.75;4.45;;;29.50;99.90;;;;;;5061383;28;20052;-78
2022/06/19 09:11:51;;;;;;;15.20;4.28;;;29.60;99.90;;;;;;5068010;28;20062;-78
2022/06/19 09:14:37;;;;;;;8.90;3.78;;;29.50;99.90;;;;;;5067136;28;20071;-82
2022/06/19 09:17:45;;;;;;;11.18;4.30;;;29.50;99.90;;;;;;5079677;28;20056;-78
2022/06/19 09:20:44;;;;;;;13.40;3.75;;;29.70;99.90;;;;;;5053879;28;20043;-76
2022/06/19 09:23:39;;;;;;;11.32;3.90;;;29.70;99.90;;;;;;5056335;28;20066;-75
2022/06/19 09:26:20;;;;;;;11.48;4.00;;;29.90;99.90;;;;;;5037575;28;20044;-83
2022/06/19 09:29:02;;;;;;;11.70;3.90;;;29.90;99.90;;;;;;5055103;28;20465;-77
2022/06/19 09:31:37;;;;;;;11.38;4.50;;;29.90;99.90;;;;;;5069913;28;20087;-75
2022/06/19 09:34:12;;;;;;;12.52;4.10;;;29.90;99.90;;;;;;5050316;28;20049;-79
2022/06/19 09:36:40;;;;;;;10.88;4.30;;;29.90;99.90;;;;;;5038952;28;20334;-77
2022/06/19 09:39:25;;;;;;;9.43;3.83;;;29.80;99.90;;;;;;5066585;28;20125;-79
2022/06/19 09:42:08;;;;;;;12.27;4.45;;;29.90;99.90;;;;;;5064765;28;20040;-78
2022/06/19 09:45:02;;;;;;;14.57;4.07;;;29.90;99.90;;;;;;5050685;28;20040;-79
2022/06/19 09:48:00;;;;;;;11.52;3.67;;;30.00;99.90;;;;;;5071068;28;20031;-80
2022/06/19 09:50:30;;;;;;;12.02;4.30;;;30.00;99.90;;;;;;5075501;28;20049;-80
2022/06/19 09:53:27;;;;;;;12.38;4.10;;;30.00;99.90;;;;;;5037822;28;20041;-78
2022/06/19 09:56:07;;;;;;;9.82;3.97;;;30.00;99.90;;;;;;5075912;28;20072;-77
2022/06/19 09:58:40;;;;;;;12.90;4.05;;;30.10;99.90;;;;;;5091462;28;20412;-80
2022/06/19 10:01:06;;;;;;;11.65;3.53;;;30.20;99.90;;;;;;5068552;28;20052;-83
2022/06/19 10:03:57;;;;;;;11.95;3.90;;;30.30;99.90;;;;;;5070136;28;21097;-77
2022/06/19 10:06:54;;;;;;;10.07;3.97;;;30.50;99.90;;;;;;5067047;28;20040;-77
2022/06/19 10:09:33;;;;;;;11.25;4.07;;;30.50;99.90;;;;;;5042863;28;20033;-82
2022/06/19 10:12:04;;;;;;;11.70;4.20;;;30.30;99.90;;;;;;5046175;28;20052;-81
2022/06/19 10:14:41;;;;;;;10.32;3.63;;;30.30;99.90;;;;;;5067197;28;20096;-78
2022/06/19 10:17:18;;;;;;;9.82;3.75;;;30.30;99.90;;;;;;5078906;28;20016;-78
2022/06/19 10:19:49;;;;;;;12.75;4.07;;;30.30;99.90;;;;;;5085012;28;20488;-79
2022/06/19 10:22:45;;;;;;;13.27;3.75;;;30.50;99.90;;;;;;5055584;28;20041;-82
2022/06/19 10:25:33;;;;;;;10.60;3.55;;;30.70;99.90;;;;;;5064115;28;20037;-82
2022/06/19 10:28:10;;;;;;;12.55;3.40;;;30.90;99.90;;;;;;5082565;28;20855;-80
2022/06/19 10:31:19;;;;;;;11.32;3.75;;;30.80;99.90;;;;;;5077980;28;20029;-79
2022/06/19 10:33:54;;;;;;;13.32;3.90;;;30.70;99.90;;;;;;5068395;28;20037;-80
2022/06/19 10:36:41;;;;;;;15.15;3.50;;;30.80;99.90;;;;;;5044515;28;20045;-79
2022/06/19 10:39:34;;;;;;;14.30;4.57;;;30.80;99.90;;;;;;5074953;28;20044;-79
2022/06/19 10:42:42;;;;;;;11.68;3.40;;;30.90;99.90;;;;;;5078809;28;20485;-78
2022/06/19 10:45:26;;;;;;;11.60;3.33;;;31.10;99.90;;;;;;5067127;28;20040;-78
2022/06/19 10:48:15;;;;;;;10.18;3.10;;;31.20;99.90;;;;;;5081111;28;20040;-78
2022/06/19 10:51:21;;;;;;;17.45;3.95;;;31.20;99.90;;;;;;5069184;28;20102;-82
2022/06/19 10:54:01;;;;;;;15.55;4.05;;;30.90;99.90;;;;;;5086054;28;20196;-78
2022/06/19 10:56:42;;;;;;;13.63;3.90;;;30.80;99.90;;;;;;5070321;28;20081;-82
2022/06/19 10:59:09;;;;;;;10.80;3.30;;;30.90;99.90;;;;;;5068405;28;20040;-79
2022/06/19 11:04:40;;;;;;;11.85;3.58;;;31.10;99.90;;;;;;5064879;28;20043;-78
2022/06/19 11:07:17;;;;;;;10.80;3.97;;;31.10;99.90;;;;;;5062871;28;20041;-77
2022/06/19 11:09:50;;;;;;;11.65;3.90;;;31.00;99.90;;;;;;5085411;28;20479;-80
2022/06/19 11:12:33;;;;;;;24.10;4.63;;;31.30;99.90;;;;;;5062683;28;20051;-79
2022/06/19 11:15:04;;;;;;;10.55;3.70;;;30.90;99.90;;;;;;5057609;28;20063;-80
2022/06/19 11:17:39;;;;;;;10.68;3.13;;;31.20;99.90;;;;;;5058419;28;20040;-81
2022/06/19 11:20:17;;;;;;;11.88;3.60;;;30.90;99.90;;;;;;5065853;28;20045;-80
2022/06/19 11:22:48;;;;;;;13.55;3.60;;;30.60;99.90;;;;;;5082038;28;20029;-78
2022/06/19 11:25:38;;;;;;;12.40;4.05;;;30.70;99.90;;;;;;5080665;28;20568;-84
2022/06/19 11:28:17;;;;;;;14.00;3.95;;;30.80;99.90;;;;;;5059067;28;20219;-78
2022/06/19 11:30:48;;;;;;;10.30;2.83;;;31.30;99.90;;;;;;5068668;28;20567;-82
2022/06/19 11:33:19;;;;;;;14.02;3.50;;;31.40;99.90;;;;;;5070986;28;20063;-77
2022/06/19 11:35:56;;;;;;;14.63;3.95;;;31.80;99.90;;;;;;5087292;28;20044;-82
2022/06/19 11:38:37;;;;;;;10.93;3.30;;;31.80;99.90;;;;;;5085107;28;20600;-82
2022/06/19 11:41:29;;;;;;;11.20;3.45;;;31.90;99.90;;;;;;5085086;28;20531;-78
2022/06/19 11:44:17;;;;;;;9.63;3.22;;;31.60;99.90;;;;;;5062963;28;20056;-82
2022/06/19 11:46:51;;;;;;;16.40;3.47;;;31.20;99.90;;;;;;5087330;28;20059;-78
2022/06/19 11:49:39;;;;;;;12.48;3.00;;;31.50;99.90;;;;;;5070601;28;20044;-79
2022/06/19 11:52:19;;;;;;;10.27;3.10;;;31.40;99.90;;;;;;5104576;28;20047;-79
2022/06/19 11:54:48;;;;;;;11.48;3.17;;;31.70;99.90;;;;;;5088581;28;20093;-81
2022/06/19 11:57:26;;;;;;;12.82;3.17;;;31.90;99.90;;;;;;5071400;28;20127;-81
2022/06/19 11:59:56;;;;;;;12.00;3.40;;;32.30;99.90;;;;;;5089260;28;20037;-80
2022/06/19 12:02:32;;;;;;;13.38;3.05;;;32.90;99.90;;;;;;5090220;28;20088;-78
2022/06/19 12:05:18;;;;;;;13.73;3.20;;;33.00;99.90;;;;;;5075614;28;20044;-80
2022/06/19 12:07:46;;;;;;;9.73;3.00;;;33.30;99.90;;;;;;5055490;28;20049;-78
2022/06/19 12:10:14;;;;;;;13.32;3.03;;;33.60;99.90;;;;;;5064557;28;20045;-85
2022/06/19 12:12:51;;;;;;;13.93;3.10;;;33.80;99.90;;;;;;5071986;28;20045;-79
2022/06/19 12:15:30;;;;;;;13.48;3.45;;;34.00;99.90;;;;;;5074855;28;20063;-79
2022/06/19 12:18:00;;;;;;;10.45;3.10;;;34.10;99.90;;;;;;5073966;28;20044;-86
2022/06/19 12:20:31;;;;;;;11.93;3.13;;;34.00;99.90;;;;;;5070443;28;20575;-83
2022/06/19 12:23:12;;;;;;;11.13;3.28;;;34.40;99.90;;;;;;5055950;28;20068;-79
2022/06/19 12:25:54;;;;;;;9.73;2.83;;;34.40;99.90;;;;;;5083171;28;20057;-81
2022/06/19 12:28:52;;;;;;;12.50;3.10;;;34.50;99.90;;;;;;5075828;28;20831;-81
2022/06/19 12:31:34;;;;;;;13.10;2.80;;;34.80;99.80;;;;;;5070099;28;20041;-82
2022/06/19 12:34:21;;;;;;;11.20;3.20;;;34.70;99.70;;;;;;5068403;28;20041;-85
2022/06/19 12:36:49;;;;;;;14.95;3.05;;;34.10;99.90;;;;;;5063005;28;20041;-81
2022/06/19 12:39:18;;;;;;;16.13;3.78;;;34.20;99.90;;;;;;5053863;28;20035;-82
2022/06/19 12:42:09;;;;;;;18.48;3.15;;;34.40;99.90;;;;;;5065168;28;20068;-82
2022/06/19 12:44:52;;;;;;;;;;;34.50;99.80;;;;;;5065893;28;20036;-84
2022/06/19 12:47:46;;;;;;;12.50;3.83;;;34.80;99.50;;;;;;5100927;28;20326;-84
2022/06/19 12:50:50;;;;;;;10.35;3.08;;;34.90;99.50;;;;;;5079323;28;20030;-79
2022/06/19 12:53:16;;;;;;;10.63;3.45;;;34.10;99.90;;;;;;5061275;28;20530;-80
2022/06/19 12:55:52;;;;;;;11.18;3.72;;;34.00;99.90;;;;;;5070696;28;20036;-80
2022/06/19 12:58:37;;;;;;;9.88;2.83;;;34.20;99.90;;;;;;5081816;28;20067;-82
2022/06/19 13:01:15;;;;;;;13.48;3.17;;;34.40;99.50;;;;;;5079911;28;20500;-82
2022/06/19 13:03:58;;;;;;;11.98;3.42;;;34.40;99.10;;;;;;5057252;28;20055;-84
2022/06/19 13:06:33;;;;;;;10.27;2.92;;;34.60;99.10;;;;;;5084010;28;20032;-84
2022/06/19 13:09:07;;;;;;;10.98;3.20;;;33.70;99.60;;;;;;5078476;28;20041;-80
2022/06/19 13:12:13;;;;;;;15.05;3.47;;;34.00;99.90;;;;;;5081940;28;20045;-77
2022/06/19 13:14:55;;;;;;;12.90;3.30;;;33.50;99.90;;;;;;5055508;28;20037;-84
2022/06/19 13:17:44;;;;;;;10.63;2.78;;;33.10;99.90;;;;;;5058409;28;20104;-80